Fort Stewart, Georgia
Current Conditions -  °F | °C
As of 7:58 AM on Friday 31 Oct 2014 (Local Time) from KLHW Reporting Station
Broken Clouds Broken Clouds  
Wind Chill: 50°   Ceiling: 20000
Heat Index: 50°   Visibility: 10mi
Dew Point: 49°   Wind: 2mph
Humidity: 95%   Direction: 330°NNW
Pressure: 29.89"   Gusts: NA
Location:  31.87°N, 81.61°W
Report Text: KLHW 311158Z AUTO 33002KT 10SM BKN200 10/09 A2989 RMK AO2 SLP125 T01000092 10118 20096 53004
Loading
Personal Weather Stations






























Interactive Weather Map
Tropical Storm Tracking
New forecast layout! Learn more

10-Day Weather Forecast

Advertisements
Track Severe Weather on mobile